Trin Even — LK5053 — position and weather

sailwx.info

Track history (hours):
 
Tides and Currents Weather Stations Pressure Air Temp Water Temp Dewpoint Dewpoint Depression Visibility Wind Speed Wind Dir Waves Ship Positions

Trin Even

Last reported at 2017-Oct-17 03:58 UTC. Time now 2017-Oct-17 04:14 UTC.
Position N 70°04' E 029°44'.

Length 10 m.

Type: Fishing. MMSI: 257156240.

Date/timePositionNaut miles runAvg speedWind from/ knotsBaromVisibWave heightAir tempDewpointWater temp
2017-Oct-17 03:58N 70°04' E 029°44'0 0.0
2017-Oct-17 03:28N 70°04' E 029°44'0 0.0
2017-Oct-17 02:58N 70°04' E 029°44'0 0.0
2017-Oct-17 02:28N 70°04' E 029°44'0 0.0
2017-Oct-17 01:55N 70°04' E 029°44'0 0.0
2017-Oct-17 01:28N 70°04' E 029°44'0 0.0
2017-Oct-17 00:58N 70°04' E 029°44'0 0.0
2017-Oct-17 00:28N 70°04' E 029°44'0 0.0
2017-Oct-16 23:58N 70°04' E 029°44'0 0.0
2017-Oct-16 23:28N 70°04' E 029°44'0 0.0
2017-Oct-16 22:58N 70°04' E 029°44'0 0.0
2017-Oct-16 22:28N 70°04' E 029°44'0 0.0
2017-Oct-16 21:58N 70°04' E 029°44'0 0.0
2017-Oct-16 21:28N 70°04' E 029°44'0 0.0
2017-Oct-16 20:58N 70°04' E 029°44'0 0.0
2017-Oct-16 20:28N 70°04' E 029°44'0 0.0
2017-Oct-16 19:58N 70°04' E 029°44'0 0.0
2017-Oct-16 19:28N 70°04' E 029°44'0 0.0
2017-Oct-16 18:58N 70°04' E 029°44'0 0.0
2017-Oct-16 18:28N 70°04' E 029°44'0 0.0
2017-Oct-16 17:58N 70°04' E 029°44'0 0.0
2017-Oct-16 17:28N 70°04' E 029°44'0 0.0
2017-Oct-16 16:58N 70°04' E 029°44'0 0.0
2017-Oct-16 16:28N 70°04' E 029°44'0 0.0
2017-Oct-16 15:58N 70°04' E 029°44'0 0.0
2017-Oct-16 15:25N 70°04' E 029°44'0 0.0
2017-Oct-16 14:58N 70°04' E 029°44'0 0.2
2017-Oct-16 13:58N 70°04' E 029°45'0 0.0
2017-Oct-16 13:28N 70°04' E 029°45'0 0.0
2017-Oct-16 13:00N 70°04' E 029°45'2 3.3
2017-Oct-16 12:30N 70°03' E 029°46'4 6.9
2017-Oct-16 11:59N 69°60' E 029°52'2 3.3
2017-Oct-16 11:30N 69°59' E 029°55'1 1.4
2017-Oct-16 11:00N 69°58' E 029°57'1 1.3
2017-Oct-16 10:29N 69°58' E 029°59'1 1.4
2017-Oct-16 10:00N 69°58' E 030°01'1 1.3
2017-Oct-16 09:29N 69°58' E 030°03'1 1.7
2017-Oct-16 09:00N 69°58' E 030°05'0 0.5
2017-Oct-16 08:30N 69°58' E 030°06'1 1.3
2017-Oct-16 07:59N 69°59' E 030°08'1 1.4
2017-Oct-16 07:30N 69°59' E 030°10'1 1.3
2017-Oct-16 07:00N 69°59' E 030°12'1 1.0
2017-Oct-16 06:30N 69°59' E 030°13'3 5.4
2017-Oct-16 05:59N 69°59' E 030°05'3 6.9
2017-Oct-16 05:30N 70°01' E 029°56'3 6.5
2017-Oct-16 04:59N 70°02' E 029°47'2 4.6
2017-Oct-16 04:29N 70°04' E 029°44'0 0.4
2017-Oct-16 03:56N 70°04' E 029°44'0 0.0
2017-Oct-16 03:29N 70°04' E 029°44'0 0.0
2017-Oct-16 02:59N 70°04' E 029°44'0 0.0
2017-Oct-16 02:29N 70°04' E 029°44'0 0.0
2017-Oct-16 01:59N 70°04' E 029°44'0 0.0
2017-Oct-16 01:29N 70°04' E 029°44'0 0.0
2017-Oct-16 00:59N 70°04' E 029°44'0 0.0
2017-Oct-16 00:29N 70°04' E 029°44'0 0.0
2017-Oct-15 23:59N 70°04' E 029°44'0 0.0
2017-Oct-15 23:29N 70°04' E 029°44'0 0.0
2017-Oct-15 22:59N 70°04' E 029°44'0 0.0
2017-Oct-15 22:29N 70°04' E 029°44'0 0.0
2017-Oct-15 21:59N 70°04' E 029°44'1 1.2
2017-Oct-15 21:30N 70°04' E 029°43'3 6.7
2017-Oct-15 21:00N 70°02' E 029°50'3 6.8
2017-Oct-15 20:30N 70°01' E 029°59'3 6.6
2017-Oct-15 20:00N 69°60' E 030°08'1 2.3
2017-Oct-15 19:29N 69°59' E 030°10'2 4.7
2017-Oct-15 19:00N 69°58' E 030°03'2 4.8
2017-Oct-15 18:30N 69°59' E 029°56'3 5.7
2017-Oct-15 18:00N 70°01' E 029°51'3 6.6
2017-Oct-15 17:30N 70°03' E 029°44'1 1.8
2017-Oct-15 16:47N 70°04' E 029°45'0 0.0
2017-Oct-15 16:30N 70°04' E 029°45'0 0.4
2017-Oct-15 15:58N 70°04' E 029°44'0 0.0
2017-Oct-15 15:28N 70°04' E 029°44'0 0.0
2017-Oct-15 14:58N 70°04' E 029°44'0 0.0
2017-Oct-15 13:58N 70°04' E 029°44'0 0.0
2017-Oct-15 13:28N 70°04' E 029°44'0 0.0
2017-Oct-15 12:58N 70°04' E 029°44'0 0.0
2017-Oct-15 12:28N 70°04' E 029°44'0 0.0
2017-Oct-15 11:58N 70°04' E 029°44'0 0.0
2017-Oct-15 11:28N 70°04' E 029°44'0 0.0
2017-Oct-15 10:58N 70°04' E 029°44'0 0.0
2017-Oct-15 10:28N 70°04' E 029°44'0 0.0
2017-Oct-15 09:58N 70°04' E 029°44'0 0.0
2017-Oct-15 09:28N 70°04' E 029°44'0 0.0
2017-Oct-15 08:58N 70°04' E 029°44'0 0.0
2017-Oct-15 08:28N 70°04' E 029°44'0 0.0
2017-Oct-15 07:58N 70°04' E 029°44'0 0.0
2017-Oct-15 07:28N 70°04' E 029°44'0 0.0
2017-Oct-15 06:58N 70°04' E 029°44'0 0.0
2017-Oct-15 06:28N 70°04' E 029°44'0 0.0
2017-Oct-15 05:55N 70°04' E 029°44'0 0.0
2017-Oct-15 05:28N 70°04' E 029°44'0 0.0
2017-Oct-15 04:58N 70°04' E 029°44'0 0.0
2017-Oct-15 04:28N 70°04' E 029°44'0 0.0
2017-Oct-15 03:58N 70°04' E 029°44'0 0.0
2017-Oct-15 03:28N 70°04' E 029°44'0 0.0
2017-Oct-15 02:58N 70°04' E 029°44'0 0.0
2017-Oct-15 02:28N 70°04' E 029°44'0 0.0
2017-Oct-15 01:58N 70°04' E 029°44'0 0.0
2017-Oct-15 01:28N 70°04' E 029°44'0 0.0
2017-Oct-15 00:58N 70°04' E 029°44'0 0.0
2017-Oct-15 00:28N 70°04' E 029°44'0 0.0
2017-Oct-14 23:58N 70°04' E 029°44'0 0.0
2017-Oct-14 23:28N 70°04' E 029°44'0 0.0
2017-Oct-14 22:58N 70°04' E 029°44'0 0.0
2017-Oct-14 22:28N 70°04' E 029°44'0 0.0
2017-Oct-14 21:58N 70°04' E 029°44'0 0.0
2017-Oct-14 21:28N 70°04' E 029°44'0 0.0
2017-Oct-14 20:58N 70°04' E 029°44'0 0.0
2017-Oct-14 20:28N 70°04' E 029°44'0 0.0
2017-Oct-14 19:58N 70°04' E 029°44'0 0.0
2017-Oct-14 19:28N 70°04' E 029°44'0 0.0
2017-Oct-14 18:58N 70°04' E 029°44'0 0.0
2017-Oct-14 18:28N 70°04' E 029°44'0 0.0
2017-Oct-14 17:58N 70°04' E 029°44'0 0.0
2017-Oct-14 17:28N 70°04' E 029°44'0 0.0
2017-Oct-14 16:58N 70°04' E 029°44'0 0.0
2017-Oct-14 16:28N 70°04' E 029°44'0 0.0
2017-Oct-14 15:58N 70°04' E 029°44'0 0.0
2017-Oct-14 15:28N 70°04' E 029°44'0 0.0
2017-Oct-14 14:55N 70°04' E 029°44'0 0.0
2017-Oct-14 14:28N 70°04' E 029°44'0 0.0
2017-Oct-14 13:58N 70°04' E 029°44'0 0.0
2017-Oct-14 13:28N 70°04' E 029°44'0 0.0
2017-Oct-14 12:46N 70°04' E 029°44'0 0.0
2017-Oct-14 12:25N 70°04' E 029°44'0 0.0
2017-Oct-14 11:55N 70°04' E 029°44'0 0.0
2017-Oct-14 11:28N 70°04' E 029°44'0 0.0
2017-Oct-14 10:46N 70°04' E 029°44'0 0.0
2017-Oct-14 10:25N 70°04' E 029°44'0 0.0
2017-Oct-14 09:43N 70°04' E 029°44'0 0.0
2017-Oct-14 09:28N 70°04' E 029°44'0 0.0
2017-Oct-14 08:34N 70°04' E 029°44'0 0.0
2017-Oct-14 08:28N 70°04' E 029°44'0 0.0
2017-Oct-14 07:58N 70°04' E 029°44'0 0.0
2017-Oct-14 07:28N 70°04' E 029°44'0 0.0
2017-Oct-14 06:58N 70°04' E 029°44'0 0.0
2017-Oct-14 06:10N 70°04' E 029°44'0 0.0
2017-Oct-14 05:58N 70°04' E 029°44'0 0.0
2017-Oct-14 05:28N 70°04' E 029°44'0 0.0
2017-Oct-14 04:58N 70°04' E 029°44'0 0.0
2017-Oct-14 04:28N 70°04' E 029°44'0 0.0
2017-Oct-14 03:58N 70°04' E 029°44'0 0.0
2017-Oct-14 03:28N 70°04' E 029°44'0 0.0
2017-Oct-14 02:58N 70°04' E 029°44'0 0.0
2017-Oct-14 02:28N 70°04' E 029°44'0 0.0
2017-Oct-14 01:52N 70°04' E 029°44'0 0.0
2017-Oct-14 01:28N 70°04' E 029°44'0 0.0
2017-Oct-14 00:58N 70°04' E 029°44'0 0.0
2017-Oct-14 00:28N 70°04' E 029°44'0 0.0
2017-Oct-13 23:58N 70°04' E 029°44'0 0.0
2017-Oct-13 23:28N 70°04' E 029°44'0 0.0
2017-Oct-13 22:58N 70°04' E 029°44'0 0.0
2017-Oct-13 22:28N 70°04' E 029°44'0 0.0
2017-Oct-13 21:58N 70°04' E 029°44'0 0.0
2017-Oct-13 21:28N 70°04' E 029°44'0 0.0
2017-Oct-13 20:10N 70°04' E 029°44'0 0.0
2017-Oct-13 19:46N 70°04' E 029°44'0 0.0
2017-Oct-13 19:28N 70°04' E 029°44'0 0.0
2017-Oct-13 18:58N 70°04' E 029°44'0 0.0
2017-Oct-13 18:28N 70°04' E 029°44'0 0.0
2017-Oct-13 17:46N 70°04' E 029°44'0 0.0
2017-Oct-13 17:28N 70°04' E 029°44'0 0.0
2017-Oct-13 16:58N 70°04' E 029°44'0 0.0
2017-Oct-13 16:28N 70°04' E 029°44'0 0.0
2017-Oct-13 15:58N 70°04' E 029°44'0 0.0
2017-Oct-13 15:28N 70°04' E 029°44'0 0.0
2017-Oct-13 14:58N 70°04' E 029°44'0 0.0
2017-Oct-13 14:28N 70°04' E 029°44'0 0.0
2017-Oct-13 13:58N 70°04' E 029°44'0 0.0
2017-Oct-13 13:28N 70°04' E 029°44'0 0.0
2017-Oct-13 12:58N 70°04' E 029°44'0 0.0
2017-Oct-13 12:28N 70°04' E 029°44'0 0.0
2017-Oct-13 11:55N 70°04' E 029°44'0 0.0
2017-Oct-13 11:28N 70°04' E 029°44'0 0.0
2017-Oct-13 10:58N 70°04' E 029°44'0 0.0
2017-Oct-13 10:28N 70°04' E 029°44'0 0.0
2017-Oct-13 09:58N 70°04' E 029°44'0 0.0
2017-Oct-13 09:28N 70°04' E 029°44'0 0.0
2017-Oct-13 08:58N 70°04' E 029°44'0 0.0
2017-Oct-13 08:28N 70°04' E 029°44'0 0.0
2017-Oct-13 07:58N 70°04' E 029°44'0 0.0
2017-Oct-13 07:25N 70°04' E 029°44'0 0.0
2017-Oct-13 06:58N 70°04' E 029°44'0 0.0
2017-Oct-13 06:22N 70°04' E 029°44'0 0.0
2017-Oct-13 05:52N 70°04' E 029°44'0 0.0
2017-Oct-13 05:22N 70°04' E 029°44'0 0.0
2017-Oct-13 04:49N 70°04' E 029°44'0 0.0
2017-Oct-13 04:22N 70°04' E 029°44'0 0.0
2017-Oct-13 03:52N 70°04' E 029°44'0 0.0
2017-Oct-13 03:19N 70°04' E 029°44'0 0.0
2017-Oct-13 02:58N 70°04' E 029°44'0 0.0
2017-Oct-13 02:10N 70°04' E 029°44'0 0.0
2017-Oct-13 01:58N 70°04' E 029°44'0 0.0
2017-Oct-13 01:28N 70°04' E 029°44'0 0.0
2017-Oct-13 00:58N 70°04' E 029°44'0 0.0
2017-Oct-13 00:28N 70°04' E 029°44'0 0.0
2017-Oct-12 23:55N 70°04' E 029°44'0 0.0
2017-Oct-12 23:28N 70°04' E 029°44'0 0.0
2017-Oct-12 22:58N 70°04' E 029°44'0 0.0
2017-Oct-12 22:28N 70°04' E 029°44'0 0.0
2017-Oct-12 21:58N 70°04' E 029°44'0 0.0
2017-Oct-12 21:28N 70°04' E 029°44'0 0.0
2017-Oct-12 20:58N 70°04' E 029°44'0 0.0
2017-Oct-12 20:28N 70°04' E 029°44'0 0.0
2017-Oct-12 19:55N 70°04' E 029°44'0 0.0
2017-Oct-12 19:22N 70°04' E 029°44'0 0.0
2017-Oct-12 18:40N 70°04' E 029°44'0 0.0
2017-Oct-12 18:19N 70°04' E 029°44'0 0.0
2017-Oct-12 17:43N 70°04' E 029°44'0 0.0
2017-Oct-12 17:28N 70°04' E 029°44'0 0.0
2017-Oct-12 16:55N 70°04' E 029°44'0 0.0
2017-Oct-12 16:22N 70°04' E 029°44'0 0.0
2017-Oct-12 15:58N 70°04' E 029°44'0 0.0
2017-Oct-12 15:28N 70°04' E 029°44'0 0.0
2017-Oct-12 14:58N 70°04' E 029°44'0 0.5
2017-Oct-12 14:30N 70°04' E 029°45'0 0.0
2017-Oct-12 13:54N 70°04' E 029°45'0 0.1
2017-Oct-12 13:29N 70°04' E 029°45'0 0.1
2017-Oct-12 12:59N 70°04' E 029°45'0 0.5
2017-Oct-12 12:27N 70°04' E 029°45'1 3.1
2017-Oct-12 12:00N 70°03' E 029°45'4 6.8
2017-Oct-12 11:29N 70°00' E 029°53'3 6.6
2017-Oct-12 11:00N 69°58' E 029°59'3 6.5
2017-Oct-12 10:30N 69°56' E 030°05'1 1.5
2017-Oct-12 10:00N 69°55' E 030°06'1 1.3
2017-Oct-12 09:29N 69°55' E 030°04'1 1.4
2017-Oct-12 09:00N 69°55' E 030°02'1 1.3
2017-Oct-12 08:30N 69°55' E 030°01'1 1.3
2017-Oct-12 08:00N 69°55' E 029°59'1 1.1
2017-Oct-12 07:30N 69°56' E 029°58'1 2.2
2017-Oct-12 06:58N 69°57' E 029°59'1 1.2
2017-Oct-12 06:29N 69°57' E 029°57'1 1.2
2017-Oct-12 05:59N 69°57' E 029°56'1 1.3
2017-Oct-12 05:30N 69°56' E 029°54'1 1.2
2017-Oct-12 04:59N 69°57' E 029°52'1 2.3
2017-Oct-12 04:23N 69°58' E 029°50'3 6.7
2017-Oct-12 04:00N 70°00' E 029°47'3 6.5
2017-Oct-12 03:30N 70°03' E 029°43'1 2.2
2017-Oct-12 02:50N 70°04' E 029°44'0 0.0
2017-Oct-12 02:17N 70°04' E 029°44'0 0.0
2017-Oct-12 01:59N 70°04' E 029°44'0 0.0
2017-Oct-12 01:17N 70°04' E 029°44'0 0.0
2017-Oct-12 00:59N 70°04' E 029°44'0 0.0
2017-Oct-12 00:29N 70°04' E 029°44'0 0.0
2017-Oct-11 23:59N 70°04' E 029°44'0 0.0
2017-Oct-11 23:29N 70°04' E 029°44'0 0.0
2017-Oct-11 22:59N 70°04' E 029°44'0 0.0
2017-Oct-11 22:29N 70°04' E 029°44'0 0.0
2017-Oct-11 21:59N 70°04' E 029°44'0 0.0
2017-Oct-11 21:29N 70°04' E 029°44'0 0.0
2017-Oct-11 20:59N 70°04' E 029°44'0 0.0
2017-Oct-11 20:20N 70°04' E 029°44'0 0.0
2017-Oct-11 19:59N 70°04' E 029°44'0 0.0
2017-Oct-11 19:30N 70°04' E 029°44'0 0.0
2017-Oct-11 18:48N 70°04' E 029°44'1 2.6
2017-Oct-11 18:30N 70°04' E 029°43'4 7.2
2017-Oct-11 18:00N 70°01' E 029°46'4 6.9
2017-Oct-11 17:29N 69°57' E 029°50'2 4.2
2017-Oct-11 17:00N 69°57' E 029°56'9 0.5
2017-Oct-11 00:00N 70°04' E 029°44'0 0.0
2017-Oct-10 23:30N 70°04' E 029°44'0 0.0
2017-Oct-10 23:00N 70°04' E 029°44'0 0.0
2017-Oct-10 22:30N 70°04' E 029°44'0 0.0
2017-Oct-10 22:00N 70°04' E 029°44'0 0.0
2017-Oct-10 21:30N 70°04' E 029°44'0 0.0
2017-Oct-10 21:00N 70°04' E 029°44'0 0.0
2017-Oct-10 20:30N 70°04' E 029°44'0 0.0
2017-Oct-10 20:00N 70°04' E 029°44'0 0.0
2017-Oct-10 19:30N 70°04' E 029°44'0 0.0
2017-Oct-10 19:00N 70°04' E 029°44'0 0.0
2017-Oct-10 18:30N 70°04' E 029°44'0 0.0
2017-Oct-10 18:00N 70°04' E 029°44'0 0.0
2017-Oct-10 17:30N 70°04' E 029°44'0 0.0
2017-Oct-10 17:00N 70°04' E 029°44'0 0.0
2017-Oct-10 16:30N 70°04' E 029°44'0 0.0
2017-Oct-10 16:00N 70°04' E 029°44'0 0.5
2017-Oct-10 15:30N 70°04' E 029°45'0 0.0
2017-Oct-10 15:00N 70°04' E 029°45'0 0.1
2017-Oct-10 14:00N 70°04' E 029°44'2 4.4
2017-Oct-10 13:30N 70°02' E 029°46'3 6.8
2017-Oct-10 13:00N 69°59' E 029°51'3 6.7
2017-Oct-10 12:30N 69°56' E 029°55'2 3.2
2017-Oct-10 11:56N 69°54' E 029°57'0 0.8
2017-Oct-10 11:30N 69°55' E 029°57'1 1.3
2017-Oct-10 11:00N 69°55' E 029°56'1 1.3
2017-Oct-10 10:30N 69°56' E 029°54'1 1.4
2017-Oct-10 09:57N 69°56' E 029°53'0 0.4
2017-Oct-10 09:30N 69°56' E 029°53'2 4.6
2017-Oct-10 09:00N 69°55' E 029°58'0 0.5
2017-Oct-10 08:30N 69°55' E 029°58'1 1.2
2017-Oct-10 08:00N 69°55' E 029°57'1 1.1
2017-Oct-10 07:31N 69°56' E 029°57'1 1.3
2017-Oct-10 06:59N 69°56' E 029°59'0 0.9
2017-Oct-10 06:28N 69°57' E 029°59'2 4.7
2017-Oct-10 05:58N 69°58' E 029°54'3 6.5
2017-Oct-10 05:30N 70°01' E 029°49'3 6.5
2017-Oct-10 05:00N 70°03' E 029°44'1 1.9
2017-Oct-10 04:28N 70°04' E 029°44'0 0.0
2017-Oct-10 03:58N 70°04' E 029°44'0 0.0
2017-Oct-10 03:28N 70°04' E 029°44'0 0.0
2017-Oct-10 02:58N 70°04' E 029°44'0 0.0
2017-Oct-10 02:28N 70°04' E 029°44'0 0.0
2017-Oct-10 01:58N 70°04' E 029°44'0 0.0
2017-Oct-10 01:28N 70°04' E 029°44'0 0.0
2017-Oct-10 00:58N 70°04' E 029°44'0 0.0
2017-Oct-10 00:28N 70°04' E 029°44'0 0.0
2017-Oct-09 23:58N 70°04' E 029°44'0 0.0
2017-Oct-09 23:28N 70°04' E 029°44'0 0.0
2017-Oct-09 22:58N 70°04' E 029°44'0 0.0
2017-Oct-09 22:28N 70°04' E 029°44'0 0.0
2017-Oct-09 21:58N 70°04' E 029°44'0 0.0
2017-Oct-09 21:28N 70°04' E 029°44'0 0.0
2017-Oct-09 20:55N 70°04' E 029°44'0 0.0
2017-Oct-09 20:22N 70°04' E 029°44'0 0.0
2017-Oct-09 19:58N 70°04' E 029°44'0 0.0
2017-Oct-09 19:28N 70°04' E 029°44'0 0.0
2017-Oct-09 18:46N 70°04' E 029°44'1 3.1
2017-Oct-09 18:30N 70°04' E 029°42'3 6.9
2017-Oct-09 18:00N 70°01' E 029°46'4 6.9
2017-Oct-09 17:29N 69°58' E 029°51'2 5.0
2017-Oct-09 17:00N 69°56' E 029°55'2 3.7
2017-Oct-09 16:30N 69°54' E 029°59'2 3.2
2017-Oct-09 16:00N 69°56' E 029°57'1 2.9
2017-Oct-09 15:31N 69°57' E 029°58'3 6.3
2017-Oct-09 15:01N 69°59' E 029°50'3 6.5
2017-Oct-09 14:29N 70°02' E 029°45'2 4.8
2017-Oct-09 14:00N 70°04' E 029°44'0 0.4
2017-Oct-09 13:30N 70°04' E 029°45'0 0.3
2017-Oct-09 12:53N 70°04' E 029°44'0 0.0
2017-Oct-09 12:26N 70°04' E 029°44'0 0.0
2017-Oct-09 11:59N 70°04' E 029°44'0 0.0
2017-Oct-09 11:29N 70°04' E 029°44'0 0.0
2017-Oct-09 10:59N 70°04' E 029°44'0 0.0
2017-Oct-09 10:29N 70°04' E 029°44'0 0.0
2017-Oct-09 09:53N 70°04' E 029°44'0 0.0
2017-Oct-09 09:29N 70°04' E 029°44'0 0.0
2017-Oct-09 08:59N 70°04' E 029°44'0 0.0
2017-Oct-09 08:29N 70°04' E 029°44'0 0.0
2017-Oct-09 07:59N 70°04' E 029°44'0 0.0
2017-Oct-09 07:29N 70°04' E 029°44'0 0.0
2017-Oct-09 06:59N 70°04' E 029°44'0 0.0
2017-Oct-09 05:50N 70°04' E 029°44'0 0.0
2017-Oct-09 05:26N 70°04' E 029°44'0 0.0
2017-Oct-09 04:59N 70°04' E 029°44'0 0.0
2017-Oct-09 04:29N 70°04' E 029°44'0 0.0
2017-Oct-09 03:56N 70°04' E 029°44'0 0.0
2017-Oct-09 03:29N 70°04' E 029°44'0 0.0
2017-Oct-09 02:59N 70°04' E 029°44'0 0.0
2017-Oct-09 02:29N 70°04' E 029°44'0 0.0
2017-Oct-09 01:59N 70°04' E 029°44'0 0.0
2017-Oct-09 01:29N 70°04' E 029°44'0 0.0
2017-Oct-09 00:59N 70°04' E 029°44'0 0.0
2017-Oct-09 00:29N 70°04' E 029°44'0 0.0
2017-Oct-08 23:56N 70°04' E 029°44'0 0.0
2017-Oct-08 23:29N 70°04' E 029°44'0 0.0
2017-Oct-08 22:59N 70°04' E 029°44'0 0.0
2017-Oct-08 22:29N 70°04' E 029°44'0 0.0
2017-Oct-08 21:59N 70°04' E 029°44'0 0.0
2017-Oct-08 21:29N 70°04' E 029°44'0 0.0
2017-Oct-08 20:59N 70°04' E 029°44'0 0.0
2017-Oct-08 19:38N 70°04' E 029°44'0 0.0
2017-Oct-08 19:23N 70°04' E 029°44'0 0.0
2017-Oct-08 18:44N 70°04' E 029°44'0 0.0
2017-Oct-08 17:20N 70°04' E 029°44'0 0.0
2017-Oct-08 16:53N 70°04' E 029°44'0 0.0
2017-Oct-08 16:29N 70°04' E 029°44'0 0.0
2017-Oct-08 15:59N 70°04' E 029°44'0 0.0
2017-Oct-08 15:29N 70°04' E 029°44'0 0.0
2017-Oct-08 14:59N 70°04' E 029°44'0 0.0
2017-Oct-08 14:29N 70°04' E 029°44'0 0.0
2017-Oct-08 13:59N 70°04' E 029°44'0 0.0
2017-Oct-08 13:29N 70°04' E 029°44'0 0.0
2017-Oct-08 12:59N 70°04' E 029°44'0 0.0
2017-Oct-08 12:29N 70°04' E 029°44'0 0.0
2017-Oct-08 11:59N 70°04' E 029°44'0 0.0
2017-Oct-08 11:29N 70°04' E 029°44'0 0.0
2017-Oct-08 10:59N 70°04' E 029°44'0 0.0
2017-Oct-08 10:29N 70°04' E 029°44'0 0.0
2017-Oct-08 09:59N 70°04' E 029°44'0 0.0
2017-Oct-08 09:29N 70°04' E 029°44'0 0.0
2017-Oct-08 08:59N 70°04' E 029°44'0 0.0
2017-Oct-08 08:29N 70°04' E 029°44'0 0.0
2017-Oct-08 07:59N 70°04' E 029°44'0 0.0
2017-Oct-08 07:29N 70°04' E 029°44'0 0.0
2017-Oct-08 06:56N 70°04' E 029°44'0 0.0
2017-Oct-08 05:56N 70°04' E 029°44'0 0.0
2017-Oct-08 05:29N 70°04' E 029°44'0 0.0
2017-Oct-08 04:59N 70°04' E 029°44'0 0.0
2017-Oct-08 04:29N 70°04' E 029°44'0 0.0
2017-Oct-08 03:59N 70°04' E 029°44'0 0.0
2017-Oct-08 03:29N 70°04' E 029°44'0 0.0
2017-Oct-08 02:59N 70°04' E 029°44'0 0.0
2017-Oct-08 02:23N 70°04' E 029°44'0 0.0
2017-Oct-08 01:41N 70°04' E 029°44'0 0.0
2017-Oct-08 01:29N 70°04' E 029°44'0 0.0
2017-Oct-08 00:56N 70°04' E 029°44'0 0.0
2017-Oct-08 00:29N 70°04' E 029°44'0 0.0
2017-Oct-07 23:59N 70°04' E 029°44'0 0.0
2017-Oct-07 23:29N 70°04' E 029°44'0 0.0
2017-Oct-07 22:59N 70°04' E 029°44'0 0.0
2017-Oct-07 22:29N 70°04' E 029°44'0 0.0
2017-Oct-07 21:59N 70°04' E 029°44'0 0.0
2017-Oct-07 21:29N 70°04' E 029°44'0 0.0
2017-Oct-07 19:17N 70°04' E 029°44'0 0.0
2017-Oct-07 16:29N 70°04' E 029°44'0 0.0
2017-Oct-07 15:59N 70°04' E 029°44'0 0.0
2017-Oct-07 15:29N 70°04' E 029°44'0 0.0
2017-Oct-07 14:59N 70°04' E 029°44'0 0.0
2017-Oct-07 14:29N 70°04' E 029°44'0 0.0
2017-Oct-07 13:59N 70°04' E 029°44'0 0.0
2017-Oct-07 13:29N 70°04' E 029°44'0 0.0
2017-Oct-07 12:59N 70°04' E 029°44'0 0.0
2017-Oct-07 12:29N 70°04' E 029°44'0 0.0
2017-Oct-07 11:56N 70°04' E 029°44'0 0.0
2017-Oct-07 11:29N 70°04' E 029°44'0 0.0
2017-Oct-07 10:59N 70°04' E 029°44'0 0.0
2017-Oct-07 10:29N 70°04' E 029°44'0 0.0
2017-Oct-07 09:59N 70°04' E 029°44'0 0.0
2017-Oct-07 09:29N 70°04' E 029°44'0 0.0
2017-Oct-07 08:59N 70°04' E 029°44'0 0.0
2017-Oct-07 08:26N 70°04' E 029°44'0 0.0
2017-Oct-07 07:59N 70°04' E 029°44'0 0.0
2017-Oct-07 07:29N 70°04' E 029°44'0 0.0
2017-Oct-07 06:56N 70°04' E 029°44'0 0.0
2017-Oct-07 06:11N 70°04' E 029°44'0 0.0
2017-Oct-07 05:59N 70°04' E 029°44'0 0.0
2017-Oct-07 05:29N 70°04' E 029°44'0 0.0
2017-Oct-07 04:59N 70°04' E 029°44'0 0.0
2017-Oct-07 04:29N 70°04' E 029°44'0 0.0
2017-Oct-07 03:59N 70°04' E 029°44'  
Track history (hours):
 
Tides and Currents Weather Stations Pressure Air Temp Water Temp Dewpoint Dewpoint Depression Visibility Wind Speed Wind Dir Waves Ship Positions

Trin Even

Last reported at 2017-Oct-17 03:58 UTC. Time now 2017-Oct-17 04:14 UTC.
Position N 70°04' E 029°44'.

Length 10 m.

Type: Fishing. MMSI: 257156240.

Date/timePositionNaut miles runAvg speedWind from/ knotsBaromVisibWave heightAir tempDewpointWater temp
2017-Oct-17 03:58N 70°04' E 029°44'0 0.0
2017-Oct-17 03:28N 70°04' E 029°44'0 0.0
2017-Oct-17 02:58N 70°04' E 029°44'0 0.0
2017-Oct-17 02:28N 70°04' E 029°44'0 0.0
2017-Oct-17 01:55N 70°04' E 029°44'0 0.0
2017-Oct-17 01:28N 70°04' E 029°44'0 0.0
2017-Oct-17 00:58N 70°04' E 029°44'0 0.0
2017-Oct-17 00:28N 70°04' E 029°44'0 0.0
2017-Oct-16 23:58N 70°04' E 029°44'0 0.0
2017-Oct-16 23:28N 70°04' E 029°44'0 0.0
2017-Oct-16 22:58N 70°04' E 029°44'0 0.0
2017-Oct-16 22:28N 70°04' E 029°44'0 0.0
2017-Oct-16 21:58N 70°04' E 029°44'0 0.0
2017-Oct-16 21:28N 70°04' E 029°44'0 0.0
2017-Oct-16 20:58N 70°04' E 029°44'0 0.0
2017-Oct-16 20:28N 70°04' E 029°44'0 0.0
2017-Oct-16 19:58N 70°04' E 029°44'0 0.0
2017-Oct-16 19:28N 70°04' E 029°44'0 0.0
2017-Oct-16 18:58N 70°04' E 029°44'0 0.0
2017-Oct-16 18:28N 70°04' E 029°44'0 0.0
2017-Oct-16 17:58N 70°04' E 029°44'0 0.0
2017-Oct-16 17:28N 70°04' E 029°44'0 0.0
2017-Oct-16 16:58N 70°04' E 029°44'0 0.0
2017-Oct-16 16:28N 70°04' E 029°44'0 0.0
2017-Oct-16 15:58N 70°04' E 029°44'0 0.0
2017-Oct-16 15:25N 70°04' E 029°44'0 0.0
2017-Oct-16 14:58N 70°04' E 029°44'0 0.2
2017-Oct-16 13:58N 70°04' E 029°45'0 0.0
2017-Oct-16 13:28N 70°04' E 029°45'0 0.0
2017-Oct-16 13:00N 70°04' E 029°45'2 3.3
2017-Oct-16 12:30N 70°03' E 029°46'4 6.9
2017-Oct-16 11:59N 69°60' E 029°52'2 3.3
2017-Oct-16 11:30N 69°59' E 029°55'1 1.4
2017-Oct-16 11:00N 69°58' E 029°57'1 1.3
2017-Oct-16 10:29N 69°58' E 029°59'1 1.4
2017-Oct-16 10:00N 69°58' E 030°01'1 1.3
2017-Oct-16 09:29N 69°58' E 030°03'1 1.7
2017-Oct-16 09:00N 69°58' E 030°05'0 0.5
2017-Oct-16 08:30N 69°58' E 030°06'1 1.3
2017-Oct-16 07:59N 69°59' E 030°08'1 1.4
2017-Oct-16 07:30N 69°59' E 030°10'1 1.3
2017-Oct-16 07:00N 69°59' E 030°12'1 1.0
2017-Oct-16 06:30N 69°59' E 030°13'3 5.4
2017-Oct-16 05:59N 69°59' E 030°05'3 6.9
2017-Oct-16 05:30N 70°01' E 029°56'3 6.5
2017-Oct-16 04:59N 70°02' E 029°47'2 4.6
2017-Oct-16 04:29N 70°04' E 029°44'0 0.4
2017-Oct-16 03:56N 70°04' E 029°44'0 0.0
2017-Oct-16 03:29N 70°04' E 029°44'0 0.0
2017-Oct-16 02:59N 70°04' E 029°44'0 0.0
2017-Oct-16 02:29N 70°04' E 029°44'0 0.0
2017-Oct-16 01:59N 70°04' E 029°44'0 0.0
2017-Oct-16 01:29N 70°04' E 029°44'0 0.0
2017-Oct-16 00:59N 70°04' E 029°44'0 0.0
2017-Oct-16 00:29N 70°04' E 029°44'0 0.0
2017-Oct-15 23:59N 70°04' E 029°44'0 0.0
2017-Oct-15 23:29N 70°04' E 029°44'0 0.0
2017-Oct-15 22:59N 70°04' E 029°44'0 0.0
2017-Oct-15 22:29N 70°04' E 029°44'0 0.0
2017-Oct-15 21:59N 70°04' E 029°44'1 1.2
2017-Oct-15 21:30N 70°04' E 029°43'3 6.7
2017-Oct-15 21:00N 70°02' E 029°50'3 6.8
2017-Oct-15 20:30N 70°01' E 029°59'3 6.6
2017-Oct-15 20:00N 69°60' E 030°08'1 2.3
2017-Oct-15 19:29N 69°59' E 030°10'2 4.7
2017-Oct-15 19:00N 69°58' E 030°03'2 4.8
2017-Oct-15 18:30N 69°59' E 029°56'3 5.7
2017-Oct-15 18:00N 70°01' E 029°51'3 6.6
2017-Oct-15 17:30N 70°03' E 029°44'1 1.8
2017-Oct-15 16:47N 70°04' E 029°45'0 0.0
2017-Oct-15 16:30N 70°04' E 029°45'0 0.4
2017-Oct-15 15:58N 70°04' E 029°44'0 0.0
2017-Oct-15 15:28N 70°04' E 029°44'0 0.0
2017-Oct-15 14:58N 70°04' E 029°44'0 0.0
2017-Oct-15 13:58N 70°04' E 029°44'0 0.0
2017-Oct-15 13:28N 70°04' E 029°44'0 0.0
2017-Oct-15 12:58N 70°04' E 029°44'0 0.0
2017-Oct-15 12:28N 70°04' E 029°44'0 0.0
2017-Oct-15 11:58N 70°04' E 029°44'0 0.0
2017-Oct-15 11:28N 70°04' E 029°44'0 0.0
2017-Oct-15 10:58N 70°04' E 029°44'0 0.0
2017-Oct-15 10:28N 70°04' E 029°44'0 0.0
2017-Oct-15 09:58N 70°04' E 029°44'0 0.0
2017-Oct-15 09:28N 70°04' E 029°44'0 0.0
2017-Oct-15 08:58N 70°04' E 029°44'0 0.0
2017-Oct-15 08:28N 70°04' E 029°44'0 0.0
2017-Oct-15 07:58N 70°04' E 029°44'0 0.0
2017-Oct-15 07:28N 70°04' E 029°44'0 0.0
2017-Oct-15 06:58N 70°04' E 029°44'0 0.0
2017-Oct-15 06:28N 70°04' E 029°44'0 0.0
2017-Oct-15 05:55N 70°04' E 029°44'0 0.0
2017-Oct-15 05:28N 70°04' E 029°44'0 0.0
2017-Oct-15 04:58N 70°04' E 029°44'0 0.0
2017-Oct-15 04:28N 70°04' E 029°44'0 0.0
2017-Oct-15 03:58N 70°04' E 029°44'0 0.0
2017-Oct-15 03:28N 70°04' E 029°44'0 0.0
2017-Oct-15 02:58N 70°04' E 029°44'0 0.0
2017-Oct-15 02:28N 70°04' E 029°44'0 0.0
2017-Oct-15 01:58N 70°04' E 029°44'0 0.0
2017-Oct-15 01:28N 70°04' E 029°44'0 0.0
2017-Oct-15 00:58N 70°04' E 029°44'0 0.0
2017-Oct-15 00:28N 70°04' E 029°44'0 0.0
2017-Oct-14 23:58N 70°04' E 029°44'0 0.0
2017-Oct-14 23:28N 70°04' E 029°44'0 0.0
2017-Oct-14 22:58N 70°04' E 029°44'0 0.0
2017-Oct-14 22:28N 70°04' E 029°44'0 0.0
2017-Oct-14 21:58N 70°04' E 029°44'0 0.0
2017-Oct-14 21:28N 70°04' E 029°44'0 0.0
2017-Oct-14 20:58N 70°04' E 029°44'0 0.0
2017-Oct-14 20:28N 70°04' E 029°44'0 0.0
2017-Oct-14 19:58N 70°04' E 029°44'0 0.0
2017-Oct-14 19:28N 70°04' E 029°44'0 0.0
2017-Oct-14 18:58N 70°04' E 029°44'0 0.0
2017-Oct-14 18:28N 70°04' E 029°44'0 0.0
2017-Oct-14 17:58N 70°04' E 029°44'0 0.0
2017-Oct-14 17:28N 70°04' E 029°44'0 0.0
2017-Oct-14 16:58N 70°04' E 029°44'0 0.0
2017-Oct-14 16:28N 70°04' E 029°44'0 0.0
2017-Oct-14 15:58N 70°04' E 029°44'0 0.0
2017-Oct-14 15:28N 70°04' E 029°44'0 0.0
2017-Oct-14 14:55N 70°04' E 029°44'0 0.0
2017-Oct-14 14:28N 70°04' E 029°44'0 0.0
2017-Oct-14 13:58N 70°04' E 029°44'0 0.0
2017-Oct-14 13:28N 70°04' E 029°44'0 0.0
2017-Oct-14 12:46N 70°04' E 029°44'0 0.0
2017-Oct-14 12:25N 70°04' E 029°44'0 0.0
2017-Oct-14 11:55N 70°04' E 029°44'0 0.0
2017-Oct-14 11:28N 70°04' E 029°44'0 0.0
2017-Oct-14 10:46N 70°04' E 029°44'0 0.0
2017-Oct-14 10:25N 70°04' E 029°44'0 0.0
2017-Oct-14 09:43N 70°04' E 029°44'0 0.0
2017-Oct-14 09:28N 70°04' E 029°44'0 0.0
2017-Oct-14 08:34N 70°04' E 029°44'0 0.0
2017-Oct-14 08:28N 70°04' E 029°44'0 0.0
2017-Oct-14 07:58N 70°04' E 029°44'0 0.0
2017-Oct-14 07:28N 70°04' E 029°44'0 0.0
2017-Oct-14 06:58N 70°04' E 029°44'0 0.0
2017-Oct-14 06:10N 70°04' E 029°44'0 0.0
2017-Oct-14 05:58N 70°04' E 029°44'0 0.0
2017-Oct-14 05:28N 70°04' E 029°44'0 0.0
2017-Oct-14 04:58N 70°04' E 029°44'0 0.0
2017-Oct-14 04:28N 70°04' E 029°44'0 0.0
2017-Oct-14 03:58N 70°04' E 029°44'0 0.0
2017-Oct-14 03:28N 70°04' E 029°44'0 0.0
2017-Oct-14 02:58N 70°04' E 029°44'0 0.0
2017-Oct-14 02:28N 70°04' E 029°44'0 0.0
2017-Oct-14 01:52N 70°04' E 029°44'0 0.0
2017-Oct-14 01:28N 70°04' E 029°44'0 0.0
2017-Oct-14 00:58N 70°04' E 029°44'0 0.0
2017-Oct-14 00:28N 70°04' E 029°44'0 0.0
2017-Oct-13 23:58N 70°04' E 029°44'0 0.0
2017-Oct-13 23:28N 70°04' E 029°44'0 0.0
2017-Oct-13 22:58N 70°04' E 029°44'0 0.0
2017-Oct-13 22:28N 70°04' E 029°44'0 0.0
2017-Oct-13 21:58N 70°04' E 029°44'0 0.0
2017-Oct-13 21:28N 70°04' E 029°44'0 0.0
2017-Oct-13 20:10N 70°04' E 029°44'0 0.0
2017-Oct-13 19:46N 70°04' E 029°44'0 0.0
2017-Oct-13 19:28N 70°04' E 029°44'0 0.0
2017-Oct-13 18:58N 70°04' E 029°44'0 0.0
2017-Oct-13 18:28N 70°04' E 029°44'0 0.0
2017-Oct-13 17:46N 70°04' E 029°44'0 0.0
2017-Oct-13 17:28N 70°04' E 029°44'0 0.0
2017-Oct-13 16:58N 70°04' E 029°44'0 0.0
2017-Oct-13 16:28N 70°04' E 029°44'0 0.0
2017-Oct-13 15:58N 70°04' E 029°44'0 0.0
2017-Oct-13 15:28N 70°04' E 029°44'0 0.0
2017-Oct-13 14:58N 70°04' E 029°44'0 0.0
2017-Oct-13 14:28N 70°04' E 029°44'0 0.0
2017-Oct-13 13:58N 70°04' E 029°44'0 0.0
2017-Oct-13 13:28N 70°04' E 029°44'0 0.0
2017-Oct-13 12:58N 70°04' E 029°44'0 0.0
2017-Oct-13 12:28N 70°04' E 029°44'0 0.0
2017-Oct-13 11:55N 70°04' E 029°44'0 0.0
2017-Oct-13 11:28N 70°04' E 029°44'0 0.0
2017-Oct-13 10:58N 70°04' E 029°44'0 0.0
2017-Oct-13 10:28N 70°04' E 029°44'0 0.0
2017-Oct-13 09:58N 70°04' E 029°44'0 0.0
2017-Oct-13 09:28N 70°04' E 029°44'0 0.0
2017-Oct-13 08:58N 70°04' E 029°44'0 0.0
2017-Oct-13 08:28N 70°04' E 029°44'0 0.0
2017-Oct-13 07:58N 70°04' E 029°44'0 0.0
2017-Oct-13 07:25N 70°04' E 029°44'0 0.0
2017-Oct-13 06:58N 70°04' E 029°44'0 0.0
2017-Oct-13 06:22N 70°04' E 029°44'0 0.0
2017-Oct-13 05:52N 70°04' E 029°44'0 0.0
2017-Oct-13 05:22N 70°04' E 029°44'0 0.0
2017-Oct-13 04:49N 70°04' E 029°44'0 0.0
2017-Oct-13 04:22N 70°04' E 029°44'0 0.0
2017-Oct-13 03:52N 70°04' E 029°44'0 0.0
2017-Oct-13 03:19N 70°04' E 029°44'0 0.0
2017-Oct-13 02:58N 70°04' E 029°44'0 0.0
2017-Oct-13 02:10N 70°04' E 029°44'0 0.0
2017-Oct-13 01:58N 70°04' E 029°44'0 0.0
2017-Oct-13 01:28N 70°04' E 029°44'0 0.0
2017-Oct-13 00:58N 70°04' E 029°44'0 0.0
2017-Oct-13 00:28N 70°04' E 029°44'0 0.0
2017-Oct-12 23:55N 70°04' E 029°44'0 0.0
2017-Oct-12 23:28N 70°04' E 029°44'0 0.0
2017-Oct-12 22:58N 70°04' E 029°44'0 0.0
2017-Oct-12 22:28N 70°04' E 029°44'0 0.0
2017-Oct-12 21:58N 70°04' E 029°44'0 0.0
2017-Oct-12 21:28N 70°04' E 029°44'0 0.0
2017-Oct-12 20:58N 70°04' E 029°44'0 0.0
2017-Oct-12 20:28N 70°04' E 029°44'0 0.0
2017-Oct-12 19:55N 70°04' E 029°44'0 0.0
2017-Oct-12 19:22N 70°04' E 029°44'0 0.0
2017-Oct-12 18:40N 70°04' E 029°44'0 0.0
2017-Oct-12 18:19N 70°04' E 029°44'0 0.0
2017-Oct-12 17:43N 70°04' E 029°44'0 0.0
2017-Oct-12 17:28N 70°04' E 029°44'0 0.0
2017-Oct-12 16:55N 70°04' E 029°44'0 0.0
2017-Oct-12 16:22N 70°04' E 029°44'0 0.0
2017-Oct-12 15:58N 70°04' E 029°44'0 0.0
2017-Oct-12 15:28N 70°04' E 029°44'0 0.0
2017-Oct-12 14:58N 70°04' E 029°44'0 0.5
2017-Oct-12 14:30N 70°04' E 029°45'0 0.0
2017-Oct-12 13:54N 70°04' E 029°45'0 0.1
2017-Oct-12 13:29N 70°04' E 029°45'0 0.1
2017-Oct-12 12:59N 70°04' E 029°45'0 0.5
2017-Oct-12 12:27N 70°04' E 029°45'1 3.1
2017-Oct-12 12:00N 70°03' E 029°45'4 6.8
2017-Oct-12 11:29N 70°00' E 029°53'3 6.6
2017-Oct-12 11:00N 69°58' E 029°59'3 6.5
2017-Oct-12 10:30N 69°56' E 030°05'1 1.5
2017-Oct-12 10:00N 69°55' E 030°06'1 1.3
2017-Oct-12 09:29N 69°55' E 030°04'1 1.4
2017-Oct-12 09:00N 69°55' E 030°02'1 1.3
2017-Oct-12 08:30N 69°55' E 030°01'1 1.3
2017-Oct-12 08:00N 69°55' E 029°59'1 1.1
2017-Oct-12 07:30N 69°56' E 029°58'1 2.2
2017-Oct-12 06:58N 69°57' E 029°59'1 1.2
2017-Oct-12 06:29N 69°57' E 029°57'1 1.2
2017-Oct-12 05:59N 69°57' E 029°56'1 1.3
2017-Oct-12 05:30N 69°56' E 029°54'1 1.2
2017-Oct-12 04:59N 69°57' E 029°52'1 2.3
2017-Oct-12 04:23N 69°58' E 029°50'3 6.7
2017-Oct-12 04:00N 70°00' E 029°47'3 6.5
2017-Oct-12 03:30N 70°03' E 029°43'1 2.2
2017-Oct-12 02:50N 70°04' E 029°44'0 0.0
2017-Oct-12 02:17N 70°04' E 029°44'0 0.0
2017-Oct-12 01:59N 70°04' E 029°44'0 0.0
2017-Oct-12 01:17N 70°04' E 029°44'0 0.0
2017-Oct-12 00:59N 70°04' E 029°44'0 0.0
2017-Oct-12 00:29N 70°04' E 029°44'0 0.0
2017-Oct-11 23:59N 70°04' E 029°44'0 0.0
2017-Oct-11 23:29N 70°04' E 029°44'0 0.0
2017-Oct-11 22:59N 70°04' E 029°44'0 0.0
2017-Oct-11 22:29N 70°04' E 029°44'0 0.0
2017-Oct-11 21:59N 70°04' E 029°44'0 0.0
2017-Oct-11 21:29N 70°04' E 029°44'0 0.0
2017-Oct-11 20:59N 70°04' E 029°44'0 0.0
2017-Oct-11 20:20N 70°04' E 029°44'0 0.0
2017-Oct-11 19:59N 70°04' E 029°44'0 0.0
2017-Oct-11 19:30N 70°04' E 029°44'0 0.0
2017-Oct-11 18:48N 70°04' E 029°44'1 2.6
2017-Oct-11 18:30N 70°04' E 029°43'4 7.2
2017-Oct-11 18:00N 70°01' E 029°46'4 6.9
2017-Oct-11 17:29N 69°57' E 029°50'2 4.2
2017-Oct-11 17:00N 69°57' E 029°56'9 0.5
2017-Oct-11 00:00N 70°04' E 029°44'0 0.0
2017-Oct-10 23:30N 70°04' E 029°44'0 0.0
2017-Oct-10 23:00N 70°04' E 029°44'0 0.0
2017-Oct-10 22:30N 70°04' E 029°44'0 0.0
2017-Oct-10 22:00N 70°04' E 029°44'0 0.0
2017-Oct-10 21:30N 70°04' E 029°44'0 0.0
2017-Oct-10 21:00N 70°04' E 029°44'0 0.0
2017-Oct-10 20:30N 70°04' E 029°44'0 0.0
2017-Oct-10 20:00N 70°04' E 029°44'0 0.0
2017-Oct-10 19:30N 70°04' E 029°44'0 0.0
2017-Oct-10 19:00N 70°04' E 029°44'0 0.0
2017-Oct-10 18:30N 70°04' E 029°44'0 0.0
2017-Oct-10 18:00N 70°04' E 029°44'0 0.0
2017-Oct-10 17:30N 70°04' E 029°44'0 0.0
2017-Oct-10 17:00N 70°04' E 029°44'0 0.0
2017-Oct-10 16:30N 70°04' E 029°44'0 0.0
2017-Oct-10 16:00N 70°04' E 029°44'0 0.5
2017-Oct-10 15:30N 70°04' E 029°45'0 0.0
2017-Oct-10 15:00N 70°04' E 029°45'0 0.1
2017-Oct-10 14:00N 70°04' E 029°44'2 4.4
2017-Oct-10 13:30N 70°02' E 029°46'3 6.8
2017-Oct-10 13:00N 69°59' E 029°51'3 6.7
2017-Oct-10 12:30N 69°56' E 029°55'2 3.2
2017-Oct-10 11:56N 69°54' E 029°57'0 0.8
2017-Oct-10 11:30N 69°55' E 029°57'1 1.3
2017-Oct-10 11:00N 69°55' E 029°56'1 1.3
2017-Oct-10 10:30N 69°56' E 029°54'1 1.4
2017-Oct-10 09:57N 69°56' E 029°53'0 0.4
2017-Oct-10 09:30N 69°56' E 029°53'2 4.6
2017-Oct-10 09:00N 69°55' E 029°58'0 0.5
2017-Oct-10 08:30N 69°55' E 029°58'1 1.2
2017-Oct-10 08:00N 69°55' E 029°57'1 1.1
2017-Oct-10 07:31N 69°56' E 029°57'1 1.3
2017-Oct-10 06:59N 69°56' E 029°59'0 0.9
2017-Oct-10 06:28N 69°57' E 029°59'2 4.7
2017-Oct-10 05:58N 69°58' E 029°54'3 6.5
2017-Oct-10 05:30N 70°01' E 029°49'3 6.5
2017-Oct-10 05:00N 70°03' E 029°44'1 1.9
2017-Oct-10 04:28N 70°04' E 029°44'0 0.0
2017-Oct-10 03:58N 70°04' E 029°44'0 0.0
2017-Oct-10 03:28N 70°04' E 029°44'0 0.0
2017-Oct-10 02:58N 70°04' E 029°44'0 0.0
2017-Oct-10 02:28N 70°04' E 029°44'0 0.0
2017-Oct-10 01:58N 70°04' E 029°44'0 0.0
2017-Oct-10 01:28N 70°04' E 029°44'0 0.0
2017-Oct-10 00:58N 70°04' E 029°44'0 0.0
2017-Oct-10 00:28N 70°04' E 029°44'0 0.0
2017-Oct-09 23:58N 70°04' E 029°44'0 0.0
2017-Oct-09 23:28N 70°04' E 029°44'0 0.0
2017-Oct-09 22:58N 70°04' E 029°44'0 0.0
2017-Oct-09 22:28N 70°04' E 029°44'0 0.0
2017-Oct-09 21:58N 70°04' E 029°44'0 0.0
2017-Oct-09 21:28N 70°04' E 029°44'0 0.0
2017-Oct-09 20:55N 70°04' E 029°44'0 0.0
2017-Oct-09 20:22N 70°04' E 029°44'0 0.0
2017-Oct-09 19:58N 70°04' E 029°44'0 0.0
2017-Oct-09 19:28N 70°04' E 029°44'0 0.0
2017-Oct-09 18:46N 70°04' E 029°44'1 3.1
2017-Oct-09 18:30N 70°04' E 029°42'3 6.9
2017-Oct-09 18:00N 70°01' E 029°46'4 6.9
2017-Oct-09 17:29N 69°58' E 029°51'2 5.0
2017-Oct-09 17:00N 69°56' E 029°55'2 3.7
2017-Oct-09 16:30N 69°54' E 029°59'2 3.2
2017-Oct-09 16:00N 69°56' E 029°57'1 2.9
2017-Oct-09 15:31N 69°57' E 029°58'3 6.3
2017-Oct-09 15:01N 69°59' E 029°50'3 6.5
2017-Oct-09 14:29N 70°02' E 029°45'2 4.8
2017-Oct-09 14:00N 70°04' E 029°44'0 0.4
2017-Oct-09 13:30N 70°04' E 029°45'0 0.3
2017-Oct-09 12:53N 70°04' E 029°44'0 0.0
2017-Oct-09 12:26N 70°04' E 029°44'0 0.0
2017-Oct-09 11:59N 70°04' E 029°44'0 0.0
2017-Oct-09 11:29N 70°04' E 029°44'0 0.0
2017-Oct-09 10:59N 70°04' E 029°44'0 0.0
2017-Oct-09 10:29N 70°04' E 029°44'0 0.0
2017-Oct-09 09:53N 70°04' E 029°44'0 0.0
2017-Oct-09 09:29N 70°04' E 029°44'0 0.0
2017-Oct-09 08:59N 70°04' E 029°44'0 0.0
2017-Oct-09 08:29N 70°04' E 029°44'0 0.0
2017-Oct-09 07:59N 70°04' E 029°44'0 0.0
2017-Oct-09 07:29N 70°04' E 029°44'0 0.0
2017-Oct-09 06:59N 70°04' E 029°44'0 0.0
2017-Oct-09 05:50N 70°04' E 029°44'0 0.0
2017-Oct-09 05:26N 70°04' E 029°44'0 0.0
2017-Oct-09 04:59N 70°04' E 029°44'0 0.0
2017-Oct-09 04:29N 70°04' E 029°44'0 0.0
2017-Oct-09 03:56N 70°04' E 029°44'0 0.0
2017-Oct-09 03:29N 70°04' E 029°44'0 0.0
2017-Oct-09 02:59N 70°04' E 029°44'0 0.0
2017-Oct-09 02:29N 70°04' E 029°44'0 0.0
2017-Oct-09 01:59N 70°04' E 029°44'0 0.0
2017-Oct-09 01:29N 70°04' E 029°44'0 0.0
2017-Oct-09 00:59N 70°04' E 029°44'0 0.0
2017-Oct-09 00:29N 70°04' E 029°44'0 0.0
2017-Oct-08 23:56N 70°04' E 029°44'0 0.0
2017-Oct-08 23:29N 70°04' E 029°44'0 0.0
2017-Oct-08 22:59N 70°04' E 029°44'0 0.0
2017-Oct-08 22:29N 70°04' E 029°44'0 0.0
2017-Oct-08 21:59N 70°04' E 029°44'0 0.0
2017-Oct-08 21:29N 70°04' E 029°44'0 0.0
2017-Oct-08 20:59N 70°04' E 029°44'0 0.0
2017-Oct-08 19:38N 70°04' E 029°44'0 0.0
2017-Oct-08 19:23N 70°04' E 029°44'0 0.0
2017-Oct-08 18:44N 70°04' E 029°44'0 0.0
2017-Oct-08 17:20N 70°04' E 029°44'0 0.0
2017-Oct-08 16:53N 70°04' E 029°44'0 0.0
2017-Oct-08 16:29N 70°04' E 029°44'0 0.0
2017-Oct-08 15:59N 70°04' E 029°44'0 0.0
2017-Oct-08 15:29N 70°04' E 029°44'0 0.0
2017-Oct-08 14:59N 70°04' E 029°44'0 0.0
2017-Oct-08 14:29N 70°04' E 029°44'0 0.0
2017-Oct-08 13:59N 70°04' E 029°44'0 0.0
2017-Oct-08 13:29N 70°04' E 029°44'0 0.0
2017-Oct-08 12:59N 70°04' E 029°44'0 0.0
2017-Oct-08 12:29N 70°04' E 029°44'0 0.0
2017-Oct-08 11:59N 70°04' E 029°44'0 0.0
2017-Oct-08 11:29N 70°04' E 029°44'0 0.0
2017-Oct-08 10:59N 70°04' E 029°44'0 0.0
2017-Oct-08 10:29N 70°04' E 029°44'0 0.0
2017-Oct-08 09:59N 70°04' E 029°44'0 0.0
2017-Oct-08 09:29N 70°04' E 029°44'0 0.0
2017-Oct-08 08:59N 70°04' E 029°44'0 0.0
2017-Oct-08 08:29N 70°04' E 029°44'0 0.0
2017-Oct-08 07:59N 70°04' E 029°44'0 0.0
2017-Oct-08 07:29N 70°04' E 029°44'0 0.0
2017-Oct-08 06:56N 70°04' E 029°44'0 0.0
2017-Oct-08 05:56N 70°04' E 029°44'0 0.0
2017-Oct-08 05:29N 70°04' E 029°44'0 0.0
2017-Oct-08 04:59N 70°04' E 029°44'0 0.0
2017-Oct-08 04:29N 70°04' E 029°44'0 0.0
2017-Oct-08 03:59N 70°04' E 029°44'0 0.0
2017-Oct-08 03:29N 70°04' E 029°44'0 0.0
2017-Oct-08 02:59N 70°04' E 029°44'0 0.0
2017-Oct-08 02:23N 70°04' E 029°44'0 0.0
2017-Oct-08 01:41N 70°04' E 029°44'0 0.0
2017-Oct-08 01:29N 70°04' E 029°44'0 0.0
2017-Oct-08 00:56N 70°04' E 029°44'0 0.0
2017-Oct-08 00:29N 70°04' E 029°44'0 0.0
2017-Oct-07 23:59N 70°04' E 029°44'0 0.0
2017-Oct-07 23:29N 70°04' E 029°44'0 0.0
2017-Oct-07 22:59N 70°04' E 029°44'0 0.0
2017-Oct-07 22:29N 70°04' E 029°44'0 0.0
2017-Oct-07 21:59N 70°04' E 029°44'0 0.0
2017-Oct-07 21:29N 70°04' E 029°44'0 0.0
2017-Oct-07 19:17N 70°04' E 029°44'0 0.0
2017-Oct-07 16:29N 70°04' E 029°44'0 0.0
2017-Oct-07 15:59N 70°04' E 029°44'0 0.0
2017-Oct-07 15:29N 70°04' E 029°44'0 0.0
2017-Oct-07 14:59N 70°04' E 029°44'0 0.0
2017-Oct-07 14:29N 70°04' E 029°44'0 0.0
2017-Oct-07 13:59N 70°04' E 029°44'0 0.0
2017-Oct-07 13:29N 70°04' E 029°44'0 0.0
2017-Oct-07 12:59N 70°04' E 029°44'0 0.0
2017-Oct-07 12:29N 70°04' E 029°44'0 0.0
2017-Oct-07 11:56N 70°04' E 029°44'0 0.0
2017-Oct-07 11:29N 70°04' E 029°44'0 0.0
2017-Oct-07 10:59N 70°04' E 029°44'0 0.0
2017-Oct-07 10:29N 70°04' E 029°44'0 0.0
2017-Oct-07 09:59N 70°04' E 029°44'0 0.0
2017-Oct-07 09:29N 70°04' E 029°44'0 0.0
2017-Oct-07 08:59N 70°04' E 029°44'0 0.0
2017-Oct-07 08:26N 70°04' E 029°44'0 0.0
2017-Oct-07 07:59N 70°04' E 029°44'0 0.0
2017-Oct-07 07:29N 70°04' E 029°44'0 0.0
2017-Oct-07 06:56N 70°04' E 029°44'0 0.0
2017-Oct-07 06:11N 70°04' E 029°44'0 0.0
2017-Oct-07 05:59N 70°04' E 029°44'0 0.0
2017-Oct-07 05:29N 70°04' E 029°44'0 0.0
2017-Oct-07 04:59N 70°04' E 029°44'0 0.0
2017-Oct-07 04:29N 70°04' E 029°44'0 0.0
2017-Oct-07 03:59N 70°04' E 029°44'  

Dump ship's entire track history